Time;durP1;ratioP1;P1;durP2;ratioP2;P2;SDS_P1;SDS_P2;PMS_P1;PMS_P2;Temp;Humidity;BMP_temperature;BMP_pressure;BME280_temperature;BME280_humidity;BME280_pressure;Samples;Min_cycle;Max_cycle;Signal;HPM_P1;HPM_P2
2023/10/28 00:01:14;;;;;;;1.20;1.10;;;11.50;99.90;;;;;;4986946;28;20234;-73
2023/10/28 00:03:41;;;;;;;1.07;0.97;;;11.50;99.90;;;;;;5014777;28;20497;-75
2023/10/28 00:06:09;;;;;;;2.13;1.30;;;11.60;99.90;;;;;;5005763;28;20465;-74
2023/10/28 00:08:36;;;;;;;1.13;0.80;;;11.60;99.90;;;;;;5003691;28;20468;-74
2023/10/28 00:11:04;;;;;;;2.00;1.60;;;11.60;99.90;;;;;;5003897;28;20887;-75
2023/10/28 00:13:30;;;;;;;1.40;1.30;;;11.60;99.90;;;;;;4987684;28;20477;-74
2023/10/28 00:15:56;;;;;;;1.00;1.00;;;11.60;99.90;;;;;;4989059;28;20458;-75
2023/10/28 00:18:22;;;;;;;2.90;1.40;;;11.60;99.90;;;;;;4989125;28;20457;-75
2023/10/28 00:20:48;;;;;;;1.20;1.10;;;11.60;99.90;;;;;;4985923;28;20456;-74
2023/10/28 00:23:14;;;;;;;1.57;1.17;;;11.60;99.90;;;;;;4987986;28;20221;-75
2023/10/28 00:25:40;;;;;;;1.10;1.03;;;11.60;99.90;;;;;;4984979;28;20223;-75
2023/10/28 00:28:06;;;;;;;1.47;1.03;;;11.60;99.90;;;;;;4987233;28;20457;-75
2023/10/28 00:30:32;;;;;;;2.90;1.30;;;11.60;99.90;;;;;;4999043;28;20453;-74
2023/10/28 00:32:58;;;;;;;1.20;1.10;;;11.60;99.90;;;;;;4981076;28;20731;-75
2023/10/28 00:35:25;;;;;;;0.97;0.97;;;11.60;99.90;;;;;;4982837;28;20238;-74
2023/10/28 00:37:51;;;;;;;1.20;1.20;;;11.60;99.90;;;;;;4994294;28;20553;-74
2023/10/28 00:40:17;;;;;;;1.30;1.20;;;11.60;99.90;;;;;;4988177;28;20496;-74
2023/10/28 00:42:45;;;;;;;1.00;1.00;;;11.60;99.90;;;;;;4999263;28;20466;-74
2023/10/28 00:45:13;;;;;;;0.90;0.90;;;11.60;99.90;;;;;;4983353;28;20454;-75
2023/10/28 00:47:40;;;;;;;0.90;0.90;;;11.60;99.90;;;;;;5002311;28;20458;-74
2023/10/28 00:50:15;;;;;;;2.83;1.10;;;11.60;99.90;;;;;;4989126;28;20941;-74
2023/10/28 00:52:44;;;;;;;0.80;0.70;;;11.60;99.90;;;;;;4986148;28;20457;-74
2023/10/28 00:55:10;;;;;;;1.63;0.63;;;11.60;99.90;;;;;;4989296;28;20469;-74
2023/10/28 00:57:41;;;;;;;1.73;1.00;;;11.60;99.90;;;;;;5002745;28;20458;-74
2023/10/28 01:00:08;;;;;;;0.70;0.70;;;11.60;99.90;;;;;;4984798;28;20511;-75
2023/10/28 01:02:39;;;;;;;1.23;1.13;;;11.60;99.90;;;;;;4985777;28;20493;-75
2023/10/28 01:05:06;;;;;;;0.90;0.90;;;11.60;99.90;;;;;;4978789;28;20485;-74
2023/10/28 01:07:32;;;;;;;0.80;0.80;;;11.50;99.90;;;;;;4985206;28;20459;-74
2023/10/28 01:09:58;;;;;;;0.60;0.60;;;11.50;99.90;;;;;;4982811;28;20488;-75
2023/10/28 01:12:26;;;;;;;1.07;0.97;;;11.50;99.90;;;;;;4982256;28;20481;-74
2023/10/28 01:14:56;;;;;;;1.07;1.00;;;11.50;99.90;;;;;;4995814;28;20376;-74
2023/10/28 01:17:25;;;;;;;1.07;0.90;;;11.50;99.90;;;;;;4986655;28;20464;-74
2023/10/28 01:19:54;;;;;;;0.67;0.67;;;11.50;99.90;;;;;;4983034;28;20465;-74
2023/10/28 01:22:21;;;;;;;0.60;0.60;;;11.50;99.90;;;;;;5002768;28;21026;-74
2023/10/28 01:24:49;;;;;;;0.80;0.80;;;11.50;99.90;;;;;;4997653;28;20447;-74
2023/10/28 01:27:15;;;;;;;0.80;0.80;;;11.50;99.90;;;;;;4986786;28;20487;-74
2023/10/28 01:29:41;;;;;;;0.60;0.60;;;11.50;99.90;;;;;;4983329;28;20481;-75
2023/10/28 01:32:07;;;;;;;1.93;1.10;;;11.50;99.90;;;;;;5005190;28;20480;-74
2023/10/28 01:34:43;;;;;;;0.70;0.60;;;11.50;99.90;;;;;;5004873;28;20508;-74
2023/10/28 01:37:09;;;;;;;0.53;0.53;;;11.40;99.90;;;;;;5005791;28;20221;-74
2023/10/28 01:39:34;;;;;;;0.50;0.50;;;11.40;99.90;;;;;;4989488;28;20450;-76
2023/10/28 01:42:00;;;;;;;0.40;0.40;;;11.40;99.90;;;;;;4998457;28;20210;-74
2023/10/28 01:44:26;;;;;;;0.40;0.40;;;11.40;99.90;;;;;;4988969;28;20709;-74
2023/10/28 01:46:51;;;;;;;1.33;0.57;;;11.40;99.90;;;;;;4988271;28;20589;-74
2023/10/28 01:49:17;;;;;;;0.80;0.70;;;11.30;99.90;;;;;;5004834;28;20217;-74
2023/10/28 01:51:43;;;;;;;1.37;0.83;;;11.20;99.90;;;;;;4988723;28;20257;-75
2023/10/28 01:54:09;;;;;;;0.50;0.50;;;11.20;99.90;;;;;;4973393;28;20254;-76
2023/10/28 01:56:35;;;;;;;2.10;0.60;;;11.20;99.90;;;;;;4996084;28;20485;-75
2023/10/28 01:59:01;;;;;;;0.40;0.40;;;11.10;99.90;;;;;;5006058;28;20708;-75
2023/10/28 02:01:27;;;;;;;0.67;0.60;;;11.00;99.90;;;;;;4990094;28;20227;-76
2023/10/28 02:03:53;;;;;;;0.93;0.50;;;11.00;99.90;;;;;;5000409;28;20465;-75
2023/10/28 02:06:18;;;;;;;0.93;0.50;;;10.90;99.90;;;;;;4991187;28;20248;-75
2023/10/28 02:08:45;;;;;;;1.63;0.90;;;10.90;99.90;;;;;;4988692;28;20489;-75
2023/10/28 02:11:11;;;;;;;0.50;0.40;;;10.90;99.90;;;;;;4988115;28;20214;-75
2023/10/28 02:13:36;;;;;;;2.00;0.70;;;10.80;99.90;;;;;;4986245;28;20473;-74
2023/10/28 02:16:02;;;;;;;1.10;0.60;;;10.80;99.90;;;;;;4985203;28;20269;-75
2023/10/28 02:18:28;;;;;;;0.60;0.50;;;10.80;99.90;;;;;;4991029;28;20222;-75
2023/10/28 02:20:54;;;;;;;1.23;0.60;;;10.80;99.90;;;;;;5004725;28;20219;-75
2023/10/28 02:23:20;;;;;;;2.10;0.80;;;10.70;99.90;;;;;;4988732;28;20215;-75
2023/10/28 02:25:46;;;;;;;1.07;0.67;;;10.70;99.90;;;;;;4987968;28;20246;-75
2023/10/28 02:28:12;;;;;;;1.03;0.67;;;10.80;99.90;;;;;;4989018;28;20462;-74
2023/10/28 02:30:41;;;;;;;1.20;1.00;;;10.80;99.90;;;;;;4988571;28;20469;-75
2023/10/28 02:33:07;;;;;;;0.73;0.73;;;10.80;99.90;;;;;;4986285;28;20468;-75
2023/10/28 02:35:36;;;;;;;0.60;0.60;;;10.80;99.90;;;;;;4987828;28;20984;-74
2023/10/28 02:38:01;;;;;;;1.07;0.97;;;10.70;99.90;;;;;;4988549;28;20550;-75
2023/10/28 02:40:27;;;;;;;0.73;0.73;;;10.60;99.90;;;;;;5020448;28;20581;-75
2023/10/28 02:42:53;;;;;;;1.33;1.17;;;10.60;99.90;;;;;;4988095;28;20222;-75
2023/10/28 02:45:19;;;;;;;0.70;0.70;;;10.60;99.90;;;;;;4988182;28;20246;-75
2023/10/28 02:47:45;;;;;;;0.80;0.73;;;10.60;99.90;;;;;;5004670;28;20578;-75
2023/10/28 02:50:11;;;;;;;0.90;0.90;;;10.50;99.90;;;;;;4987728;28;20222;-75
2023/10/28 02:52:36;;;;;;;1.53;1.43;;;10.50;99.90;;;;;;5004220;28;20214;-75
2023/10/28 02:55:03;;;;;;;0.93;0.87;;;10.40;99.90;;;;;;4971910;28;20604;-74
2023/10/28 02:57:28;;;;;;;2.00;0.70;;;10.40;99.90;;;;;;5004572;28;20709;-75
2023/10/28 02:59:54;;;;;;;0.97;0.80;;;10.40;99.90;;;;;;4987769;28;20517;-75
2023/10/28 03:02:20;;;;;;;2.10;1.07;;;10.40;99.90;;;;;;4987572;28;20685;-74
2023/10/28 03:04:45;;;;;;;1.40;1.30;;;10.40;99.90;;;;;;4985439;28;20229;-75
2023/10/28 03:07:12;;;;;;;0.70;0.70;;;10.40;99.90;;;;;;4988353;28;20216;-75
2023/10/28 03:09:39;;;;;;;1.67;1.03;;;10.40;99.90;;;;;;4987940;28;20461;-75
2023/10/28 03:12:05;;;;;;;1.83;1.13;;;10.40;99.90;;;;;;4988457;28;20280;-75
2023/10/28 03:14:30;;;;;;;2.00;1.03;;;10.40;99.90;;;;;;4988067;28;20470;-75
2023/10/28 03:16:56;;;;;;;1.43;1.00;;;10.40;99.90;;;;;;5004162;28;20226;-75
2023/10/28 03:19:22;;;;;;;0.70;0.70;;;10.40;99.90;;;;;;4987048;28;20234;-75
2023/10/28 03:21:47;;;;;;;2.57;1.10;;;10.40;99.90;;;;;;4985122;28;20235;-75
2023/10/28 03:24:14;;;;;;;1.03;0.70;;;10.40;99.90;;;;;;4991786;28;20218;-74
2023/10/28 03:26:40;;;;;;;1.13;0.83;;;10.50;99.90;;;;;;4989209;28;20462;-73
2023/10/28 03:29:06;;;;;;;1.07;0.73;;;10.50;99.90;;;;;;4989951;28;20748;-75
2023/10/28 03:31:32;;;;;;;4.27;1.73;;;10.50;99.90;;;;;;4991459;28;20468;-74
2023/10/28 03:33:57;;;;;;;1.40;1.23;;;10.50;99.90;;;;;;4990753;28;20229;-75
2023/10/28 03:36:24;;;;;;;1.90;1.00;;;10.50;99.90;;;;;;4990818;28;20231;-72
2023/10/28 03:38:49;;;;;;;1.30;1.20;;;10.50;99.90;;;;;;4992975;28;20476;-75
2023/10/28 03:41:15;;;;;;;2.70;0.90;;;10.60;99.90;;;;;;4991226;28;20229;-74
2023/10/28 03:43:41;;;;;;;3.70;1.10;;;10.60;99.90;;;;;;4991147;28;20272;-74
2023/10/28 03:46:07;;;;;;;1.10;1.00;;;10.60;99.90;;;;;;4991904;28;20226;-75
2023/10/28 03:48:33;;;;;;;1.73;0.90;;;10.50;99.90;;;;;;4991537;28;20681;-75
2023/10/28 03:51:02;;;;;;;1.00;0.87;;;10.50;99.90;;;;;;5006866;28;20607;-75
2023/10/28 03:53:29;;;;;;;2.43;1.20;;;10.40;99.90;;;;;;4986542;28;20476;-75
2023/10/28 03:55:55;;;;;;;1.47;1.37;;;10.50;99.90;;;;;;4991921;28;20472;-75
2023/10/28 03:58:21;;;;;;;1.50;1.40;;;10.50;99.90;;;;;;4991262;28;20500;-75
2023/10/28 04:00:53;;;;;;;1.07;0.90;;;10.50;99.90;;;;;;5018091;28;20445;-75
2023/10/28 04:03:20;;;;;;;1.57;1.10;;;10.50;99.90;;;;;;4990861;28;20302;-75
2023/10/28 04:05:49;;;;;;;2.97;0.80;;;10.60;99.90;;;;;;4989058;28;20466;-75
2023/10/28 04:08:15;;;;;;;1.77;1.27;;;10.70;99.90;;;;;;4987618;28;20454;-75
2023/10/28 04:10:41;;;;;;;2.00;1.23;;;10.70;99.90;;;;;;5006920;28;20524;-75
2023/10/28 04:13:07;;;;;;;2.87;1.17;;;10.80;99.90;;;;;;4984857;28;20828;-75
2023/10/28 04:15:35;;;;;;;0.87;0.87;;;10.80;99.90;;;;;;4990701;28;20290;-76
2023/10/28 04:18:01;;;;;;;1.10;0.97;;;10.80;99.90;;;;;;4990232;28;20249;-76
2023/10/28 04:20:27;;;;;;;2.23;1.30;;;10.80;99.90;;;;;;4988442;28;20460;-75
2023/10/28 04:22:53;;;;;;;2.60;1.10;;;10.70;99.90;;;;;;4990787;28;20450;-75
2023/10/28 04:25:19;;;;;;;1.73;0.97;;;10.80;99.90;;;;;;4990855;28;20597;-76
2023/10/28 04:27:44;;;;;;;0.70;0.70;;;10.80;99.90;;;;;;4994378;28;20699;-75
2023/10/28 04:30:10;;;;;;;1.27;0.90;;;10.80;99.90;;;;;;5002268;28;20599;-75
2023/10/28 04:32:39;;;;;;;1.43;1.20;;;10.80;99.90;;;;;;4991220;28;20210;-75
2023/10/28 04:35:06;;;;;;;2.30;1.30;;;10.80;99.90;;;;;;4985336;28;20528;-75
2023/10/28 04:37:32;;;;;;;0.90;0.90;;;10.80;99.90;;;;;;4989589;28;20474;-75
2023/10/28 04:39:57;;;;;;;1.03;0.93;;;10.80;99.90;;;;;;4989959;28;20466;-75
2023/10/28 04:42:23;;;;;;;0.90;0.90;;;10.80;99.90;;;;;;4986933;28;20479;-75
2023/10/28 04:44:49;;;;;;;1.07;0.77;;;10.80;99.90;;;;;;4990765;28;20226;-75
2023/10/28 04:47:15;;;;;;;0.90;0.67;;;10.80;99.90;;;;;;4990284;28;20223;-75
2023/10/28 04:49:41;;;;;;;2.43;1.50;;;10.90;99.90;;;;;;4990948;28;20735;-75
2023/10/28 04:52:08;;;;;;;1.03;0.83;;;10.90;99.90;;;;;;4986379;28;20226;-76
2023/10/28 04:54:35;;;;;;;0.87;0.87;;;10.80;99.90;;;;;;4988807;28;21050;-74
2023/10/28 04:57:02;;;;;;;0.90;0.90;;;10.90;99.90;;;;;;4973381;28;20532;-74
2023/10/28 04:59:29;;;;;;;1.10;0.90;;;10.80;99.90;;;;;;4990001;28;20461;-76
2023/10/28 05:01:55;;;;;;;3.10;0.97;;;10.90;99.90;;;;;;4989414;28;20508;-75
2023/10/28 05:04:23;;;;;;;1.80;1.10;;;10.90;99.90;;;;;;4991256;28;20620;-75
2023/10/28 05:06:49;;;;;;;2.93;0.80;;;10.90;99.90;;;;;;4990431;28;20472;-76
2023/10/28 05:09:15;;;;;;;0.80;0.80;;;10.90;99.90;;;;;;4989157;28;20462;-75
2023/10/28 05:11:42;;;;;;;1.00;0.90;;;10.90;99.90;;;;;;4989935;28;20464;-75
2023/10/28 05:14:11;;;;;;;0.80;0.80;;;10.90;99.90;;;;;;4990582;28;20212;-74
2023/10/28 05:16:36;;;;;;;1.07;0.97;;;10.90;99.90;;;;;;4986327;28;20474;-75
2023/10/28 05:19:02;;;;;;;0.80;0.80;;;10.90;99.90;;;;;;4996314;28;20531;-75
2023/10/28 05:21:28;;;;;;;1.13;1.00;;;10.90;99.90;;;;;;5009343;28;20668;-75
2023/10/28 05:23:54;;;;;;;1.60;0.87;;;10.90;99.90;;;;;;4995361;28;20249;-75
2023/10/28 05:26:19;;;;;;;5.20;1.40;;;10.90;99.90;;;;;;4988755;28;20233;-75
2023/10/28 05:28:46;;;;;;;5.23;1.10;;;10.90;99.90;;;;;;4990677;28;20225;-74
2023/10/28 05:31:13;;;;;;;1.30;1.10;;;10.90;99.90;;;;;;4990029;28;20222;-75
2023/10/28 05:33:39;;;;;;;1.17;1.07;;;10.90;99.90;;;;;;4992172;28;20471;-74
2023/10/28 05:36:06;;;;;;;0.73;0.73;;;10.90;99.90;;;;;;4991573;28;21015;-75
2023/10/28 05:38:31;;;;;;;1.03;0.97;;;10.90;99.90;;;;;;4995114;28;20449;-74
2023/10/28 05:40:57;;;;;;;1.33;1.20;;;10.90;99.90;;;;;;5007499;28;20445;-75
2023/10/28 05:43:23;;;;;;;5.07;1.30;;;11.00;99.90;;;;;;4990490;28;20848;-75
2023/10/28 05:45:49;;;;;;;1.30;1.20;;;11.00;99.90;;;;;;4986828;28;20606;-75
2023/10/28 05:48:15;;;;;;;1.27;1.13;;;10.90;99.90;;;;;;5009955;28;20215;-75
2023/10/28 05:50:41;;;;;;;12.43;1.73;;;10.90;99.90;;;;;;4988968;28;20229;-75
2023/10/28 05:53:06;;;;;;;1.90;1.17;;;10.90;99.90;;;;;;4989344;28;20450;-75
2023/10/28 05:55:32;;;;;;;4.93;2.17;;;10.90;99.90;;;;;;4988280;28;20234;-75
2023/10/28 05:57:58;;;;;;;2.00;1.50;;;10.90;99.90;;;;;;4989050;28;20217;-75
2023/10/28 06:00:24;;;;;;;2.80;1.60;;;11.00;99.90;;;;;;4988675;28;20289;-75
2023/10/28 06:02:49;;;;;;;11.87;1.73;;;11.00;99.90;;;;;;4972904;28;20250;-75
2023/10/28 06:05:15;;;;;;;3.90;1.83;;;11.00;99.90;;;;;;4988634;28;20492;-75
2023/10/28 06:07:47;;;;;;;5.23;1.47;;;10.90;99.90;;;;;;4986881;28;20284;-76
2023/10/28 06:10:16;;;;;;;2.67;1.70;;;10.90;99.90;;;;;;4988616;28;20257;-75
2023/10/28 06:12:41;;;;;;;2.73;1.40;;;10.90;99.90;;;;;;5004283;28;20446;-75
2023/10/28 06:15:08;;;;;;;1.90;1.33;;;10.90;99.90;;;;;;4988128;28;20988;-75
2023/10/28 06:17:35;;;;;;;3.00;1.70;;;10.90;99.90;;;;;;4987873;28;20309;-74
2023/10/28 06:20:01;;;;;;;3.63;1.77;;;10.90;99.90;;;;;;4988633;28;20461;-75
2023/10/28 06:22:26;;;;;;;5.40;1.37;;;10.90;99.90;;;;;;4997679;28;20466;-75
2023/10/28 06:24:54;;;;;;;2.23;1.03;;;10.90;99.90;;;;;;4996890;28;20471;-75
2023/10/28 06:27:22;;;;;;;1.90;1.40;;;10.80;99.90;;;;;;4988319;28;20268;-75
2023/10/28 06:29:47;;;;;;;2.67;1.03;;;10.90;99.90;;;;;;4991722;28;20466;-75
2023/10/28 06:32:13;;;;;;;1.70;1.00;;;10.90;99.90;;;;;;4988854;28;20463;-75
2023/10/28 06:34:39;;;;;;;3.60;1.60;;;11.00;99.90;;;;;;4987610;28;20226;-75
2023/10/28 06:37:04;;;;;;;3.83;1.53;;;10.90;99.90;;;;;;4987450;28;20688;-76
2023/10/28 06:39:34;;;;;;;1.40;1.30;;;11.00;99.90;;;;;;4988529;28;20707;-74
2023/10/28 06:42:01;;;;;;;4.50;1.40;;;10.90;99.90;;;;;;5004426;28;20234;-74
2023/10/28 06:44:27;;;;;;;3.77;1.20;;;10.90;99.90;;;;;;5004888;28;20454;-75
2023/10/28 06:46:52;;;;;;;1.60;1.07;;;11.00;99.90;;;;;;4988232;28;20844;-74
2023/10/28 06:49:18;;;;;;;6.03;1.70;;;11.00;99.90;;;;;;4985034;28;20537;-75
2023/10/28 06:51:44;;;;;;;4.67;1.53;;;11.00;99.90;;;;;;4983686;28;20349;-74
2023/10/28 06:54:10;;;;;;;4.40;1.47;;;11.00;99.90;;;;;;5020464;28;20662;-74
2023/10/28 06:56:36;;;;;;;1.67;1.57;;;10.90;99.90;;;;;;4985944;28;20537;-74
2023/10/28 06:59:01;;;;;;;2.43;1.40;;;11.00;99.90;;;;;;4988188;28;20214;-75
2023/10/28 07:01:27;;;;;;;4.40;2.00;;;11.00;99.90;;;;;;4987259;28;20246;-75
2023/10/28 07:03:53;;;;;;;2.60;1.27;;;11.00;99.90;;;;;;4984324;28;20700;-75
2023/10/28 07:06:19;;;;;;;3.83;1.60;;;11.00;99.90;;;;;;5004240;28;20273;-75
2023/10/28 07:08:45;;;;;;;2.37;1.33;;;11.00;99.90;;;;;;4987825;28;20245;-75
2023/10/28 07:11:12;;;;;;;2.37;1.13;;;11.00;99.90;;;;;;4987782;28;20229;-76
2023/10/28 07:13:38;;;;;;;2.93;1.10;;;11.00;99.90;;;;;;4987735;28;20466;-75
2023/10/28 07:16:04;;;;;;;3.17;1.43;;;11.00;99.90;;;;;;4987467;28;20470;-75
2023/10/28 07:18:30;;;;;;;1.60;1.17;;;11.00;99.90;;;;;;4986772;28;20458;-74
2023/10/28 07:20:57;;;;;;;8.53;1.70;;;11.10;99.90;;;;;;4986876;28;20460;-75
2023/10/28 07:23:26;;;;;;;8.70;1.73;;;11.00;99.90;;;;;;4987252;28;20549;-75
2023/10/28 07:25:53;;;;;;;4.93;1.33;;;11.10;99.90;;;;;;4986031;28;20460;-75
2023/10/28 07:28:19;;;;;;;1.80;1.20;;;11.10;99.90;;;;;;4987932;28;20500;-75
2023/10/28 07:30:48;;;;;;;1.67;1.33;;;11.10;99.90;;;;;;4988181;28;20458;-75
2023/10/28 07:33:14;;;;;;;2.30;1.27;;;11.10;99.90;;;;;;4987978;28;20544;-76
2023/10/28 07:35:47;;;;;;;4.37;1.43;;;11.10;99.90;;;;;;4988445;28;20474;-75
2023/10/28 07:38:14;;;;;;;3.27;1.57;;;11.10;99.90;;;;;;4987700;28;20454;-76
2023/10/28 07:40:40;;;;;;;1.40;1.30;;;11.10;99.90;;;;;;5002059;28;20450;-75
2023/10/28 07:43:06;;;;;;;1.60;1.10;;;11.10;99.90;;;;;;4986796;28;20840;-75
2023/10/28 07:45:33;;;;;;;5.60;1.63;;;11.20;99.90;;;;;;4987282;28;20453;-74
2023/10/28 07:47:59;;;;;;;1.43;1.23;;;11.20;99.90;;;;;;4986282;28;20457;-75
2023/10/28 07:50:25;;;;;;;6.97;1.40;;;11.20;99.90;;;;;;5020245;28;20437;-76
2023/10/28 07:52:51;;;;;;;7.40;1.40;;;11.20;99.90;;;;;;4987117;28;20446;-74
2023/10/28 07:55:16;;;;;;;3.40;1.40;;;11.30;99.90;;;;;;4987194;28;20481;-75
2023/10/28 07:57:43;;;;;;;1.70;1.10;;;11.30;99.90;;;;;;4987029;28;20234;-75
2023/10/28 08:00:11;;;;;;;3.73;1.23;;;11.30;99.90;;;;;;4986740;28;20223;-75
2023/10/28 08:02:44;;;;;;;1.10;1.00;;;11.30;99.90;;;;;;4988396;28;20450;-75
2023/10/28 08:05:10;;;;;;;2.83;1.30;;;11.30;99.90;;;;;;4986716;28;20458;-76
2023/10/28 08:07:39;;;;;;;1.53;1.10;;;11.40;99.90;;;;;;4986270;28;20466;-75
2023/10/28 08:10:06;;;;;;;1.83;1.20;;;11.30;99.90;;;;;;4987309;28;20457;-75
2023/10/28 08:12:31;;;;;;;1.60;0.93;;;11.40;99.90;;;;;;4980444;28;20845;-76
2023/10/28 08:15:00;;;;;;;0.90;0.90;;;11.40;99.90;;;;;;4991934;28;20476;-76
2023/10/28 08:17:26;;;;;;;1.80;1.23;;;11.40;99.90;;;;;;5020000;28;20234;-74
2023/10/28 08:19:52;;;;;;;3.70;1.17;;;11.40;99.90;;;;;;4991758;28;20464;-74
2023/10/28 08:22:17;;;;;;;1.77;1.27;;;11.50;99.90;;;;;;5006396;28;20245;-74
2023/10/28 08:24:45;;;;;;;4.10;1.57;;;11.50;99.90;;;;;;5007926;28;20214;-74
2023/10/28 08:27:11;;;;;;;4.40;1.50;;;11.50;99.90;;;;;;5007711;28;20706;-74
2023/10/28 08:29:37;;;;;;;2.43;1.40;;;11.60;99.90;;;;;;5006689;28;20449;-74
2023/10/28 08:32:03;;;;;;;3.17;1.07;;;11.60;99.90;;;;;;5004150;28;20562;-74
2023/10/28 08:34:29;;;;;;;1.77;1.37;;;11.60;99.90;;;;;;4995576;28;20991;-75
2023/10/28 08:36:55;;;;;;;1.80;0.90;;;11.60;99.90;;;;;;4985077;28;20556;-75
2023/10/28 08:39:21;;;;;;;1.37;1.10;;;11.70;99.90;;;;;;4989991;28;21024;-76
2023/10/28 08:41:47;;;;;;;1.50;0.97;;;11.70;99.90;;;;;;5001412;28;20563;-76
2023/10/28 08:44:14;;;;;;;5.00;1.53;;;11.70;99.90;;;;;;4991991;28;20250;-76
2023/10/28 08:46:42;;;;;;;2.20;1.40;;;11.70;99.90;;;;;;4982102;28;20458;-75
2023/10/28 08:49:11;;;;;;;1.57;1.10;;;11.70;99.90;;;;;;4995776;28;20878;-75
2023/10/28 08:51:41;;;;;;;1.47;1.37;;;11.80;99.90;;;;;;4990561;28;20458;-75
2023/10/28 08:54:10;;;;;;;2.73;1.00;;;11.80;99.90;;;;;;4996065;28;20469;-76
2023/10/28 08:56:38;;;;;;;2.97;1.47;;;11.80;99.90;;;;;;5005055;28;20464;-76
2023/10/28 08:59:04;;;;;;;5.13;1.57;;;11.80;99.90;;;;;;4992284;28;20458;-76
2023/10/28 09:01:31;;;;;;;6.83;1.53;;;11.80;99.90;;;;;;4971750;28;20534;-75
2023/10/28 09:04:00;;;;;;;1.00;0.83;;;11.80;99.90;;;;;;4992259;28;20221;-75
2023/10/28 09:06:28;;;;;;;8.10;2.00;;;11.80;99.90;;;;;;5003394;28;20995;-73
2023/10/28 09:08:55;;;;;;;4.77;2.00;;;11.80;99.90;;;;;;5003515;28;20460;-75
2023/10/28 09:11:22;;;;;;;4.93;1.20;;;11.90;99.90;;;;;;5009293;28;20461;-76
2023/10/28 09:13:48;;;;;;;0.87;0.83;;;11.90;99.90;;;;;;5009827;28;20572;-76
2023/10/28 09:16:16;;;;;;;2.10;1.37;;;11.90;99.90;;;;;;4992960;28;20544;-75
2023/10/28 09:18:43;;;;;;;1.40;1.30;;;12.00;99.90;;;;;;4993102;28;20245;-76
2023/10/28 09:21:11;;;;;;;3.60;1.40;;;12.10;99.90;;;;;;5006713;28;20468;-76
2023/10/28 09:23:38;;;;;;;4.10;1.37;;;12.20;99.90;;;;;;5008982;28;20516;-72
2023/10/28 09:26:08;;;;;;;5.40;1.50;;;12.20;99.90;;;;;;5008271;28;20456;-76
2023/10/28 09:28:34;;;;;;;3.07;1.53;;;12.20;99.90;;;;;;5009156;28;21004;-76
2023/10/28 09:31:00;;;;;;;2.60;1.47;;;12.30;99.90;;;;;;5009129;28;20445;-76
2023/10/28 09:33:27;;;;;;;1.83;1.50;;;12.40;99.90;;;;;;5009369;28;20536;-74
2023/10/28 09:35:56;;;;;;;1.93;1.27;;;12.40;99.90;;;;;;5008785;28;20475;-75
2023/10/28 09:38:23;;;;;;;4.20;1.43;;;12.50;99.90;;;;;;4991653;28;20872;-75
2023/10/28 09:40:49;;;;;;;2.97;2.00;;;12.60;99.90;;;;;;4995941;28;20529;-76
2023/10/28 09:43:15;;;;;;;5.60;1.97;;;12.60;99.90;;;;;;5004753;28;20464;-75
2023/10/28 09:45:46;;;;;;;4.50;1.67;;;12.60;99.90;;;;;;4972092;28;20453;-75
2023/10/28 09:48:15;;;;;;;2.83;1.40;;;12.60;99.90;;;;;;4995299;28;20458;-76
2023/10/28 09:50:49;;;;;;;2.27;1.67;;;12.60;99.90;;;;;;4997098;28;21003;-76
2023/10/28 09:53:27;;;;;;;2.90;1.23;;;12.60;99.90;;;;;;5004315;28;20527;-75
2023/10/28 09:55:55;;;;;;;2.80;1.57;;;12.60;99.90;;;;;;5008266;28;20479;-76
2023/10/28 09:58:28;;;;;;;3.53;1.30;;;12.60;99.90;;;;;;4992034;28;20442;-76
2023/10/28 10:01:01;;;;;;;3.90;1.77;;;12.60;99.90;;;;;;5003658;28;20449;-75
2023/10/28 10:03:56;;;;;;;4.87;1.80;;;12.70;99.90;;;;;;4992210;28;20831;-76
2023/10/28 10:06:23;;;;;;;1.70;1.30;;;12.70;99.90;;;;;;4996652;28;20508;-75
2023/10/28 10:08:50;;;;;;;3.70;1.60;;;12.80;99.90;;;;;;4995842;28;20461;-75
2023/10/28 10:11:24;;;;;;;9.37;1.80;;;12.90;99.90;;;;;;4993373;28;20489;-75
2023/10/28 10:13:49;;;;;;;6.23;1.97;;;13.00;99.90;;;;;;4985842;28;20481;-75
2023/10/28 10:16:41;;;;;;;1.83;1.30;;;13.00;99.90;;;;;;5000545;28;20453;-75
2023/10/28 10:19:12;;;;;;;2.80;1.50;;;13.10;99.90;;;;;;5002215;28;20214;-76
2023/10/28 10:21:38;;;;;;;1.60;1.00;;;13.10;99.90;;;;;;4995952;28;20444;-76
2023/10/28 10:24:04;;;;;;;5.53;1.57;;;13.20;99.90;;;;;;4997814;28;20463;-75
2023/10/28 10:26:32;;;;;;;2.93;2.00;;;13.20;99.90;;;;;;4983120;28;20469;-74
2023/10/28 10:28:59;;;;;;;3.27;1.83;;;13.20;99.90;;;;;;4985623;28;20470;-75
2023/10/28 10:31:30;;;;;;;2.00;1.30;;;13.20;99.90;;;;;;4997099;28;20469;-76
2023/10/28 10:34:07;;;;;;;5.73;1.67;;;13.20;99.90;;;;;;5014778;28;20535;-76
2023/10/28 10:36:43;;;;;;;2.27;1.27;;;13.20;99.90;;;;;;4983682;28;20529;-75
2023/10/28 10:39:20;;;;;;;7.67;1.97;;;13.10;99.90;;;;;;4988341;28;20457;-76
2023/10/28 10:41:53;;;;;;;2.57;1.40;;;13.10;99.90;;;;;;5002952;28;20465;-76
2023/10/28 10:44:33;;;;;;;1.90;1.33;;;13.10;99.90;;;;;;5001124;28;20498;-76
2023/10/28 10:47:00;;;;;;;4.13;1.50;;;13.10;99.90;;;;;;4992322;28;20465;-75
2023/10/28 10:49:26;;;;;;;3.37;1.47;;;13.10;99.90;;;;;;5019413;28;20464;-76
2023/10/28 10:51:52;;;;;;;7.70;1.90;;;13.10;99.90;;;;;;4971124;28;20792;-76
2023/10/28 10:54:18;;;;;;;3.37;2.00;;;13.10;99.90;;;;;;4984861;28;20477;-75
2023/10/28 10:56:48;;;;;;;11.57;2.17;;;13.10;99.90;;;;;;4983063;28;20479;-76
2023/10/28 10:59:14;;;;;;;5.17;2.00;;;13.10;99.90;;;;;;5008906;28;20457;-76
2023/10/28 11:01:40;;;;;;;5.10;1.80;;;13.10;99.90;;;;;;4998218;28;20484;-76
2023/10/28 11:04:06;;;;;;;1.47;1.20;;;13.10;99.90;;;;;;5005811;28;20668;-76
2023/10/28 11:06:33;;;;;;;6.97;1.50;;;13.10;99.90;;;;;;4979238;28;20456;-76
2023/10/28 11:09:03;;;;;;;3.37;1.60;;;13.10;99.90;;;;;;4968288;28;20465;-76
2023/10/28 11:11:29;;;;;;;1.57;1.30;;;13.10;99.90;;;;;;4986845;28;20449;-75
2023/10/28 11:13:56;;;;;;;4.23;1.70;;;13.20;99.90;;;;;;4986910;28;20566;-76
2023/10/28 11:16:27;;;;;;;6.87;2.00;;;13.20;99.90;;;;;;4984725;28;20960;-76
2023/10/28 11:18:52;;;;;;;6.40;1.70;;;13.10;99.90;;;;;;4985959;28;20516;-76
2023/10/28 11:21:23;;;;;;;4.33;1.70;;;13.20;99.90;;;;;;4987475;28;20450;-76
2023/10/28 11:23:49;;;;;;;3.50;1.93;;;13.20;99.90;;;;;;4994581;28;20575;-75
2023/10/28 11:26:21;;;;;;;2.20;1.20;;;13.20;99.90;;;;;;4990247;28;20479;-75
2023/10/28 11:28:47;;;;;;;3.50;1.40;;;13.10;99.90;;;;;;4986000;28;20229;-76
2023/10/28 11:31:13;;;;;;;3.03;1.33;;;13.10;99.90;;;;;;4986760;28;20534;-77
2023/10/28 11:33:41;;;;;;;1.90;1.10;;;13.10;99.90;;;;;;4989657;28;20953;-75
2023/10/28 11:36:08;;;;;;;4.43;1.50;;;13.00;99.90;;;;;;4990439;28;20215;-75
2023/10/28 11:38:34;;;;;;;3.40;1.73;;;13.00;99.90;;;;;;4986054;28;20505;-76
2023/10/28 11:41:04;;;;;;;4.10;2.60;;;13.10;99.90;;;;;;4986739;28;20912;-76
2023/10/28 11:43:30;;;;;;;3.93;1.30;;;13.10;99.90;;;;;;4987560;28;20878;-76
2023/10/28 11:45:55;;;;;;;4.23;1.40;;;13.10;99.90;;;;;;4991593;28;20494;-75
2023/10/28 11:48:21;;;;;;;4.17;2.33;;;13.10;99.90;;;;;;4989595;28;20458;-76
2023/10/28 11:50:47;;;;;;;4.53;1.80;;;13.10;99.90;;;;;;4992605;28;20225;-76
2023/10/28 11:53:15;;;;;;;4.33;2.20;;;13.00;99.90;;;;;;4990426;28;20210;-76
2023/10/28 11:55:41;;;;;;;4.20;1.40;;;13.00;99.90;;;;;;5005788;28;20449;-75
2023/10/28 11:58:08;;;;;;;8.00;1.67;;;13.00;99.90;;;;;;4989660;28;20472;-76
2023/10/28 12:00:35;;;;;;;3.07;1.67;;;13.00;99.90;;;;;;5006161;28;20485;-76
2023/10/28 12:03:04;;;;;;;1.40;1.30;;;13.00;99.90;;;;;;5005094;28;20475;-76
2023/10/28 12:05:31;;;;;;;2.80;1.50;;;13.00;99.90;;;;;;5000040;28;20453;-75
2023/10/28 12:07:56;;;;;;;2.93;1.33;;;13.00;99.90;;;;;;5006742;28;20464;-76
2023/10/28 12:10:22;;;;;;;5.80;1.97;;;13.00;99.90;;;;;;4985680;28;20465;-75
2023/10/28 12:12:48;;;;;;;4.70;1.60;;;13.00;99.90;;;;;;4973831;28;20225;-76
2023/10/28 12:15:13;;;;;;;4.23;1.63;;;13.00;99.90;;;;;;5010586;28;20258;-75
2023/10/28 12:17:39;;;;;;;5.53;1.90;;;13.00;99.90;;;;;;5003676;28;20230;-76
2023/10/28 12:20:07;;;;;;;6.53;2.27;;;13.00;99.90;;;;;;4990013;28;20246;-75
2023/10/28 12:22:35;;;;;;;2.77;1.40;;;13.00;99.90;;;;;;4990438;28;20219;-76
2023/10/28 12:25:01;;;;;;;5.27;1.80;;;13.00;99.90;;;;;;5023728;28;20460;-76
2023/10/28 12:27:27;;;;;;;2.67;1.33;;;13.00;99.90;;;;;;5006239;28;20457;-76
2023/10/28 12:29:53;;;;;;;3.33;1.40;;;13.00;99.90;;;;;;4997336;28;21025;-75
2023/10/28 12:32:19;;;;;;;2.57;1.93;;;13.00;99.90;;;;;;4973675;28;20218;-75
2023/10/28 12:34:45;;;;;;;4.43;1.37;;;13.00;99.90;;;;;;4997361;28;20234;-76
2023/10/28 12:37:10;;;;;;;12.67;2.27;;;13.00;99.90;;;;;;4988876;28;20476;-76
2023/10/28 12:39:36;;;;;;;4.73;1.87;;;13.00;99.90;;;;;;5020116;28;20219;-75
2023/10/28 12:42:03;;;;;;;7.03;1.93;;;13.00;99.90;;;;;;4990141;28;20253;-76
2023/10/28 12:44:30;;;;;;;3.90;1.70;;;13.00;99.90;;;;;;5019846;28;20728;-76